sensor_id;sensor_type;location;lat;lon;timestamp;P1;durP1;ratioP1;P2;durP2;ratioP2
50569;SDS011;36525;49.398;7.614;2023-05-07T00:00:08;3.60;;;1.45;;
50569;SDS011;36525;49.398;7.614;2023-05-07T00:02:37;4.20;;;1.50;;
50569;SDS011;36525;49.398;7.614;2023-05-07T00:05:05;9.13;;;1.30;;
50569;SDS011;36525;49.398;7.614;2023-05-07T00:07:35;2.78;;;1.40;;
50569;SDS011;36525;49.398;7.614;2023-05-07T00:10:03;5.43;;;1.30;;
50569;SDS011;36525;49.398;7.614;2023-05-07T00:12:32;1.85;;;1.00;;
50569;SDS011;36525;49.398;7.614;2023-05-07T00:15:03;3.50;;;1.42;;
50569;SDS011;36525;49.398;7.614;2023-05-07T00:17:32;3.65;;;1.25;;
50569;SDS011;36525;49.398;7.614;2023-05-07T00:20:00;2.83;;;1.42;;
50569;SDS011;36525;49.398;7.614;2023-05-07T00:22:28;3.55;;;1.20;;
50569;SDS011;36525;49.398;7.614;2023-05-07T00:24:56;3.42;;;0.93;;
50569;SDS011;36525;49.398;7.614;2023-05-07T00:27:23;3.30;;;1.58;;
50569;SDS011;36525;49.398;7.614;2023-05-07T00:29:51;4.40;;;1.73;;
50569;SDS011;36525;49.398;7.614;2023-05-07T00:32:18;3.83;;;1.20;;
50569;SDS011;36525;49.398;7.614;2023-05-07T00:34:46;4.03;;;1.50;;
50569;SDS011;36525;49.398;7.614;2023-05-07T00:37:14;3.40;;;1.48;;
50569;SDS011;36525;49.398;7.614;2023-05-07T00:39:41;3.90;;;1.35;;
50569;SDS011;36525;49.398;7.614;2023-05-07T00:42:08;3.08;;;1.33;;
50569;SDS011;36525;49.398;7.614;2023-05-07T00:44:36;5.20;;;1.70;;
50569;SDS011;36525;49.398;7.614;2023-05-07T00:47:03;4.78;;;1.50;;
50569;SDS011;36525;49.398;7.614;2023-05-07T00:49:41;3.53;;;1.55;;
50569;SDS011;36525;49.398;7.614;2023-05-07T00:52:14;3.38;;;1.15;;
50569;SDS011;36525;49.398;7.614;2023-05-07T00:54:43;3.50;;;1.42;;
50569;SDS011;36525;49.398;7.614;2023-05-07T00:57:10;3.83;;;1.73;;
50569;SDS011;36525;49.398;7.614;2023-05-07T00:59:38;4.75;;;1.30;;
50569;SDS011;36525;49.398;7.614;2023-05-07T01:02:06;2.83;;;1.33;;
50569;SDS011;36525;49.398;7.614;2023-05-07T01:04:37;4.80;;;1.52;;
50569;SDS011;36525;49.398;7.614;2023-05-07T01:07:06;5.53;;;1.85;;
50569;SDS011;36525;49.398;7.614;2023-05-07T01:09:34;3.40;;;1.55;;
50569;SDS011;36525;49.398;7.614;2023-05-07T01:12:02;3.70;;;1.70;;
50569;SDS011;36525;49.398;7.614;2023-05-07T01:14:30;4.18;;;1.60;;
50569;SDS011;36525;49.398;7.614;2023-05-07T01:16:59;4.18;;;1.63;;
50569;SDS011;36525;49.398;7.614;2023-05-07T01:19:26;2.22;;;1.27;;
50569;SDS011;36525;49.398;7.614;2023-05-07T01:21:58;5.10;;;1.58;;
50569;SDS011;36525;49.398;7.614;2023-05-07T01:24:31;2.55;;;1.50;;
50569;SDS011;36525;49.398;7.614;2023-05-07T01:27:01;5.88;;;1.58;;
50569;SDS011;36525;49.398;7.614;2023-05-07T01:29:29;3.97;;;1.63;;
50569;SDS011;36525;49.398;7.614;2023-05-07T01:31:57;3.10;;;1.45;;
50569;SDS011;36525;49.398;7.614;2023-05-07T01:34:27;4.13;;;1.80;;
50569;SDS011;36525;49.398;7.614;2023-05-07T01:36:57;3.15;;;1.48;;
50569;SDS011;36525;49.398;7.614;2023-05-07T01:39:27;2.10;;;1.42;;
50569;SDS011;36525;49.398;7.614;2023-05-07T01:41:56;2.58;;;1.50;;
50569;SDS011;36525;49.398;7.614;2023-05-07T01:44:25;3.83;;;1.50;;
50569;SDS011;36525;49.398;7.614;2023-05-07T01:46:54;3.95;;;1.60;;
50569;SDS011;36525;49.398;7.614;2023-05-07T01:49:22;3.67;;;1.90;;
50569;SDS011;36525;49.398;7.614;2023-05-07T01:51:49;3.38;;;1.52;;
50569;SDS011;36525;49.398;7.614;2023-05-07T01:54:16;2.58;;;1.30;;
50569;SDS011;36525;49.398;7.614;2023-05-07T01:56:43;4.50;;;1.83;;
50569;SDS011;36525;49.398;7.614;2023-05-07T01:59:11;7.05;;;2.00;;
50569;SDS011;36525;49.398;7.614;2023-05-07T02:01:39;3.50;;;2.10;;
50569;SDS011;36525;49.398;7.614;2023-05-07T02:04:06;4.45;;;1.88;;
50569;SDS011;36525;49.398;7.614;2023-05-07T02:06:35;4.05;;;1.75;;
50569;SDS011;36525;49.398;7.614;2023-05-07T02:09:02;3.25;;;1.80;;
50569;SDS011;36525;49.398;7.614;2023-05-07T02:11:29;4.03;;;1.35;;
50569;SDS011;36525;49.398;7.614;2023-05-07T02:13:56;6.53;;;1.52;;
50569;SDS011;36525;49.398;7.614;2023-05-07T02:16:23;2.67;;;1.25;;
50569;SDS011;36525;49.398;7.614;2023-05-07T02:18:50;3.50;;;1.50;;
50569;SDS011;36525;49.398;7.614;2023-05-07T02:21:18;8.57;;;1.92;;
50569;SDS011;36525;49.398;7.614;2023-05-07T02:23:45;3.03;;;1.65;;
50569;SDS011;36525;49.398;7.614;2023-05-07T02:26:12;3.40;;;1.52;;
50569;SDS011;36525;49.398;7.614;2023-05-07T02:28:42;4.30;;;2.00;;
50569;SDS011;36525;49.398;7.614;2023-05-07T02:31:09;4.57;;;1.85;;
50569;SDS011;36525;49.398;7.614;2023-05-07T02:33:36;5.78;;;1.98;;
50569;SDS011;36525;49.398;7.614;2023-05-07T02:36:10;5.20;;;2.15;;
50569;SDS011;36525;49.398;7.614;2023-05-07T02:38:38;4.80;;;1.73;;
50569;SDS011;36525;49.398;7.614;2023-05-07T02:41:05;3.72;;;2.17;;
50569;SDS011;36525;49.398;7.614;2023-05-07T02:43:32;5.40;;;2.35;;
50569;SDS011;36525;49.398;7.614;2023-05-07T02:46:03;3.70;;;2.17;;
50569;SDS011;36525;49.398;7.614;2023-05-07T02:48:33;4.57;;;1.90;;
50569;SDS011;36525;49.398;7.614;2023-05-07T02:51:01;5.63;;;2.35;;
50569;SDS011;36525;49.398;7.614;2023-05-07T02:53:29;6.40;;;2.17;;
50569;SDS011;36525;49.398;7.614;2023-05-07T02:55:57;5.60;;;2.33;;
50569;SDS011;36525;49.398;7.614;2023-05-07T02:58:26;3.42;;;2.03;;
50569;SDS011;36525;49.398;7.614;2023-05-07T03:00:54;5.47;;;2.40;;
50569;SDS011;36525;49.398;7.614;2023-05-07T03:03:21;5.10;;;2.42;;
50569;SDS011;36525;49.398;7.614;2023-05-07T03:05:49;6.53;;;2.08;;
50569;SDS011;36525;49.398;7.614;2023-05-07T03:08:15;6.88;;;2.50;;
50569;SDS011;36525;49.398;7.614;2023-05-07T03:10:43;4.68;;;2.25;;
50569;SDS011;36525;49.398;7.614;2023-05-07T03:13:10;6.60;;;2.15;;
50569;SDS011;36525;49.398;7.614;2023-05-07T03:15:37;4.72;;;2.10;;
50569;SDS011;36525;49.398;7.614;2023-05-07T03:18:05;6.38;;;2.20;;
50569;SDS011;36525;49.398;7.614;2023-05-07T03:20:33;6.07;;;2.45;;
50569;SDS011;36525;49.398;7.614;2023-05-07T03:23:01;3.88;;;2.40;;
50569;SDS011;36525;49.398;7.614;2023-05-07T03:25:28;4.57;;;2.30;;
50569;SDS011;36525;49.398;7.614;2023-05-07T03:28:15;5.15;;;2.20;;
50569;SDS011;36525;49.398;7.614;2023-05-07T03:30:42;4.60;;;2.15;;
50569;SDS011;36525;49.398;7.614;2023-05-07T03:33:09;4.13;;;2.08;;
50569;SDS011;36525;49.398;7.614;2023-05-07T03:35:36;5.65;;;2.72;;
50569;SDS011;36525;49.398;7.614;2023-05-07T03:38:03;4.50;;;2.25;;
50569;SDS011;36525;49.398;7.614;2023-05-07T03:40:31;5.05;;;2.28;;
50569;SDS011;36525;49.398;7.614;2023-05-07T03:42:59;5.47;;;2.40;;
50569;SDS011;36525;49.398;7.614;2023-05-07T03:45:27;5.13;;;2.92;;
50569;SDS011;36525;49.398;7.614;2023-05-07T03:47:54;5.55;;;2.30;;
50569;SDS011;36525;49.398;7.614;2023-05-07T03:50:21;3.88;;;2.35;;
50569;SDS011;36525;49.398;7.614;2023-05-07T03:52:48;4.72;;;2.50;;
50569;SDS011;36525;49.398;7.614;2023-05-07T03:55:15;4.32;;;2.03;;
50569;SDS011;36525;49.398;7.614;2023-05-07T03:57:42;5.13;;;2.50;;
50569;SDS011;36525;49.398;7.614;2023-05-07T04:00:10;5.07;;;2.30;;
50569;SDS011;36525;49.398;7.614;2023-05-07T04:02:38;4.50;;;2.22;;
50569;SDS011;36525;49.398;7.614;2023-05-07T04:05:06;4.90;;;2.60;;
50569;SDS011;36525;49.398;7.614;2023-05-07T04:07:33;5.00;;;2.30;;
50569;SDS011;36525;49.398;7.614;2023-05-07T04:10:04;5.03;;;2.42;;
50569;SDS011;36525;49.398;7.614;2023-05-07T04:12:31;4.45;;;2.00;;
50569;SDS011;36525;49.398;7.614;2023-05-07T04:14:58;5.43;;;2.25;;
50569;SDS011;36525;49.398;7.614;2023-05-07T04:17:26;4.25;;;2.17;;
50569;SDS011;36525;49.398;7.614;2023-05-07T04:19:53;5.45;;;2.72;;
50569;SDS011;36525;49.398;7.614;2023-05-07T04:22:20;5.57;;;2.25;;
50569;SDS011;36525;49.398;7.614;2023-05-07T04:24:47;4.53;;;2.47;;
50569;SDS011;36525;49.398;7.614;2023-05-07T04:27:14;4.75;;;2.33;;
50569;SDS011;36525;49.398;7.614;2023-05-07T04:29:41;5.30;;;2.28;;
50569;SDS011;36525;49.398;7.614;2023-05-07T04:32:09;5.57;;;2.22;;
50569;SDS011;36525;49.398;7.614;2023-05-07T04:34:37;6.38;;;2.78;;
50569;SDS011;36525;49.398;7.614;2023-05-07T04:37:04;6.72;;;2.45;;
50569;SDS011;36525;49.398;7.614;2023-05-07T04:39:32;5.80;;;2.83;;
50569;SDS011;36525;49.398;7.614;2023-05-07T04:42:01;4.03;;;2.15;;
50569;SDS011;36525;49.398;7.614;2023-05-07T04:44:29;4.45;;;2.10;;
50569;SDS011;36525;49.398;7.614;2023-05-07T04:46:57;4.10;;;2.58;;
50569;SDS011;36525;49.398;7.614;2023-05-07T04:49:24;5.03;;;2.20;;
50569;SDS011;36525;49.398;7.614;2023-05-07T04:51:52;3.55;;;2.05;;
50569;SDS011;36525;49.398;7.614;2023-05-07T04:54:19;4.82;;;2.40;;
50569;SDS011;36525;49.398;7.614;2023-05-07T04:56:46;5.57;;;2.60;;
50569;SDS011;36525;49.398;7.614;2023-05-07T04:59:13;3.78;;;2.63;;
50569;SDS011;36525;49.398;7.614;2023-05-07T05:01:40;4.40;;;2.88;;
50569;SDS011;36525;49.398;7.614;2023-05-07T05:04:07;3.42;;;2.30;;
50569;SDS011;36525;49.398;7.614;2023-05-07T05:06:34;6.68;;;2.50;;
50569;SDS011;36525;49.398;7.614;2023-05-07T05:09:01;5.50;;;2.78;;
50569;SDS011;36525;49.398;7.614;2023-05-07T05:11:31;5.18;;;2.92;;
50569;SDS011;36525;49.398;7.614;2023-05-07T05:13:59;7.10;;;2.42;;
50569;SDS011;36525;49.398;7.614;2023-05-07T05:16:27;4.22;;;2.33;;
50569;SDS011;36525;49.398;7.614;2023-05-07T05:18:54;4.55;;;2.15;;
50569;SDS011;36525;49.398;7.614;2023-05-07T05:21:22;5.18;;;2.58;;
50569;SDS011;36525;49.398;7.614;2023-05-07T05:23:49;4.13;;;2.67;;
50569;SDS011;36525;49.398;7.614;2023-05-07T05:26:16;5.95;;;2.67;;
50569;SDS011;36525;49.398;7.614;2023-05-07T05:28:43;4.00;;;2.33;;
50569;SDS011;36525;49.398;7.614;2023-05-07T05:31:11;4.00;;;2.60;;
50569;SDS011;36525;49.398;7.614;2023-05-07T05:33:38;4.50;;;2.20;;
50569;SDS011;36525;49.398;7.614;2023-05-07T05:36:06;6.55;;;3.03;;
50569;SDS011;36525;49.398;7.614;2023-05-07T05:38:36;4.60;;;2.42;;
50569;SDS011;36525;49.398;7.614;2023-05-07T05:41:03;5.40;;;2.58;;
50569;SDS011;36525;49.398;7.614;2023-05-07T05:43:30;6.70;;;2.70;;
50569;SDS011;36525;49.398;7.614;2023-05-07T05:45:57;5.10;;;2.80;;
50569;SDS011;36525;49.398;7.614;2023-05-07T05:48:25;6.40;;;2.90;;
50569;SDS011;36525;49.398;7.614;2023-05-07T05:50:52;4.10;;;2.38;;
50569;SDS011;36525;49.398;7.614;2023-05-07T05:53:20;5.05;;;2.47;;
50569;SDS011;36525;49.398;7.614;2023-05-07T05:55:47;3.35;;;2.28;;
50569;SDS011;36525;49.398;7.614;2023-05-07T05:58:15;5.03;;;2.38;;
50569;SDS011;36525;49.398;7.614;2023-05-07T06:00:45;4.95;;;2.30;;
50569;SDS011;36525;49.398;7.614;2023-05-07T06:03:14;6.15;;;2.40;;
50569;SDS011;36525;49.398;7.614;2023-05-07T06:05:41;5.70;;;2.05;;
50569;SDS011;36525;49.398;7.614;2023-05-07T06:08:09;3.45;;;1.70;;
50569;SDS011;36525;49.398;7.614;2023-05-07T06:10:36;3.53;;;2.53;;
50569;SDS011;36525;49.398;7.614;2023-05-07T06:13:04;4.30;;;2.00;;
50569;SDS011;36525;49.398;7.614;2023-05-07T06:15:31;4.55;;;2.53;;
50569;SDS011;36525;49.398;7.614;2023-05-07T06:18:02;5.43;;;2.38;;
50569;SDS011;36525;49.398;7.614;2023-05-07T06:20:29;5.72;;;2.10;;
50569;SDS011;36525;49.398;7.614;2023-05-07T06:22:56;4.32;;;2.10;;
50569;SDS011;36525;49.398;7.614;2023-05-07T06:25:23;3.60;;;1.60;;
50569;SDS011;36525;49.398;7.614;2023-05-07T06:27:51;4.43;;;1.83;;
50569;SDS011;36525;49.398;7.614;2023-05-07T06:30:18;3.70;;;2.10;;
50569;SDS011;36525;49.398;7.614;2023-05-07T06:32:45;3.88;;;1.70;;
50569;SDS011;36525;49.398;7.614;2023-05-07T06:35:12;4.53;;;1.60;;
50569;SDS011;36525;49.398;7.614;2023-05-07T06:37:40;6.95;;;1.92;;
50569;SDS011;36525;49.398;7.614;2023-05-07T06:40:09;3.42;;;1.40;;
50569;SDS011;36525;49.398;7.614;2023-05-07T06:42:38;3.78;;;1.58;;
50569;SDS011;36525;49.398;7.614;2023-05-07T06:45:05;7.90;;;1.85;;
50569;SDS011;36525;49.398;7.614;2023-05-07T06:47:35;5.25;;;1.65;;
50569;SDS011;36525;49.398;7.614;2023-05-07T06:50:03;5.28;;;1.88;;
50569;SDS011;36525;49.398;7.614;2023-05-07T06:52:30;4.20;;;1.38;;
50569;SDS011;36525;49.398;7.614;2023-05-07T06:54:58;3.80;;;1.60;;
50569;SDS011;36525;49.398;7.614;2023-05-07T06:57:26;4.78;;;1.60;;
50569;SDS011;36525;49.398;7.614;2023-05-07T06:59:53;4.43;;;1.30;;
50569;SDS011;36525;49.398;7.614;2023-05-07T07:02:20;2.47;;;1.20;;
50569;SDS011;36525;49.398;7.614;2023-05-07T07:04:47;2.55;;;1.55;;
50569;SDS011;36525;49.398;7.614;2023-05-07T07:07:15;5.78;;;1.60;;
50569;SDS011;36525;49.398;7.614;2023-05-07T07:09:42;6.40;;;1.50;;
50569;SDS011;36525;49.398;7.614;2023-05-07T07:12:09;3.17;;;1.45;;
50569;SDS011;36525;49.398;7.614;2023-05-07T07:14:37;3.05;;;1.15;;
50569;SDS011;36525;49.398;7.614;2023-05-07T07:17:04;4.80;;;1.42;;
50569;SDS011;36525;49.398;7.614;2023-05-07T07:19:31;2.58;;;1.17;;
50569;SDS011;36525;49.398;7.614;2023-05-07T07:21:58;2.28;;;1.35;;
50569;SDS011;36525;49.398;7.614;2023-05-07T07:24:25;2.20;;;1.23;;
50569;SDS011;36525;49.398;7.614;2023-05-07T07:26:52;3.75;;;1.52;;
50569;SDS011;36525;49.398;7.614;2023-05-07T07:29:21;4.60;;;1.23;;
50569;SDS011;36525;49.398;7.614;2023-05-07T07:31:49;3.13;;;1.48;;
50569;SDS011;36525;49.398;7.614;2023-05-07T07:34:16;3.42;;;1.52;;
50569;SDS011;36525;49.398;7.614;2023-05-07T07:36:43;2.88;;;1.30;;
50569;SDS011;36525;49.398;7.614;2023-05-07T07:39:12;3.28;;;1.30;;
50569;SDS011;36525;49.398;7.614;2023-05-07T07:41:40;4.03;;;1.60;;
50569;SDS011;36525;49.398;7.614;2023-05-07T07:44:06;4.22;;;1.45;;
50569;SDS011;36525;49.398;7.614;2023-05-07T07:46:35;5.10;;;1.83;;
50569;SDS011;36525;49.398;7.614;2023-05-07T07:49:02;3.47;;;1.55;;
50569;SDS011;36525;49.398;7.614;2023-05-07T07:51:29;3.50;;;1.40;;
50569;SDS011;36525;49.398;7.614;2023-05-07T07:53:57;2.92;;;1.50;;
50569;SDS011;36525;49.398;7.614;2023-05-07T07:56:24;3.72;;;1.30;;
50569;SDS011;36525;49.398;7.614;2023-05-07T07:58:52;4.65;;;1.52;;
50569;SDS011;36525;49.398;7.614;2023-05-07T08:01:19;2.42;;;1.30;;
50569;SDS011;36525;49.398;7.614;2023-05-07T08:03:46;3.22;;;1.52;;
50569;SDS011;36525;49.398;7.614;2023-05-07T08:06:14;2.58;;;1.25;;
50569;SDS011;36525;49.398;7.614;2023-05-07T08:08:41;2.50;;;1.08;;
50569;SDS011;36525;49.398;7.614;2023-05-07T08:11:08;3.17;;;1.25;;
50569;SDS011;36525;49.398;7.614;2023-05-07T08:13:36;3.33;;;1.30;;
50569;SDS011;36525;49.398;7.614;2023-05-07T08:16:04;2.97;;;1.70;;
50569;SDS011;36525;49.398;7.614;2023-05-07T08:18:31;2.90;;;1.35;;
50569;SDS011;36525;49.398;7.614;2023-05-07T08:20:59;4.65;;;1.13;;
50569;SDS011;36525;49.398;7.614;2023-05-07T08:23:27;4.93;;;1.08;;
50569;SDS011;36525;49.398;7.614;2023-05-07T08:25:54;3.55;;;1.13;;
50569;SDS011;36525;49.398;7.614;2023-05-07T08:28:21;1.55;;;1.00;;
50569;SDS011;36525;49.398;7.614;2023-05-07T08:30:51;4.80;;;1.27;;
50569;SDS011;36525;49.398;7.614;2023-05-07T08:33:18;10.88;;;1.40;;
50569;SDS011;36525;49.398;7.614;2023-05-07T08:35:46;3.17;;;1.30;;
50569;SDS011;36525;49.398;7.614;2023-05-07T08:38:14;2.83;;;1.30;;
50569;SDS011;36525;49.398;7.614;2023-05-07T08:40:41;3.72;;;1.27;;
50569;SDS011;36525;49.398;7.614;2023-05-07T08:43:08;3.50;;;1.27;;
50569;SDS011;36525;49.398;7.614;2023-05-07T08:45:40;2.75;;;1.20;;
50569;SDS011;36525;49.398;7.614;2023-05-07T08:48:08;2.50;;;1.35;;
50569;SDS011;36525;49.398;7.614;2023-05-07T08:50:41;2.45;;;0.90;;
50569;SDS011;36525;49.398;7.614;2023-05-07T08:53:08;2.78;;;1.27;;
50569;SDS011;36525;49.398;7.614;2023-05-07T08:55:36;1.90;;;0.88;;
50569;SDS011;36525;49.398;7.614;2023-05-07T08:58:05;3.75;;;1.00;;
50569;SDS011;36525;49.398;7.614;2023-05-07T09:00:33;5.07;;;1.13;;
50569;SDS011;36525;49.398;7.614;2023-05-07T09:03:03;2.60;;;1.00;;
50569;SDS011;36525;49.398;7.614;2023-05-07T09:05:31;2.35;;;1.00;;
50569;SDS011;36525;49.398;7.614;2023-05-07T09:07:59;2.58;;;0.77;;
50569;SDS011;36525;49.398;7.614;2023-05-07T09:10:29;3.75;;;1.00;;
50569;SDS011;36525;49.398;7.614;2023-05-07T09:12:56;3.72;;;1.00;;
50569;SDS011;36525;49.398;7.614;2023-05-07T09:15:23;2.50;;;0.95;;
50569;SDS011;36525;49.398;7.614;2023-05-07T09:17:51;4.43;;;1.08;;
50569;SDS011;36525;49.398;7.614;2023-05-07T09:20:18;3.47;;;1.00;;
50569;SDS011;36525;49.398;7.614;2023-05-07T09:22:45;3.35;;;1.00;;
50569;SDS011;36525;49.398;7.614;2023-05-07T09:25:13;5.90;;;0.90;;
50569;SDS011;36525;49.398;7.614;2023-05-07T09:27:41;1.77;;;0.68;;
50569;SDS011;36525;49.398;7.614;2023-05-07T09:30:08;2.55;;;0.90;;
50569;SDS011;36525;49.398;7.614;2023-05-07T09:32:36;4.22;;;0.90;;
50569;SDS011;36525;49.398;7.614;2023-05-07T09:35:04;3.25;;;0.90;;
50569;SDS011;36525;49.398;7.614;2023-05-07T09:37:34;3.47;;;0.98;;
50569;SDS011;36525;49.398;7.614;2023-05-07T09:40:02;3.38;;;0.90;;
50569;SDS011;36525;49.398;7.614;2023-05-07T09:42:30;2.42;;;0.90;;
50569;SDS011;36525;49.398;7.614;2023-05-07T09:44:58;2.92;;;1.10;;
50569;SDS011;36525;49.398;7.614;2023-05-07T09:47:25;1.98;;;0.93;;
50569;SDS011;36525;49.398;7.614;2023-05-07T09:49:59;2.95;;;1.02;;
50569;SDS011;36525;49.398;7.614;2023-05-07T09:52:30;3.40;;;1.30;;
50569;SDS011;36525;49.398;7.614;2023-05-07T09:54:59;2.35;;;0.70;;
50569;SDS011;36525;49.398;7.614;2023-05-07T09:57:29;2.45;;;0.90;;
50569;SDS011;36525;49.398;7.614;2023-05-07T09:59:58;3.15;;;0.80;;
50569;SDS011;36525;49.398;7.614;2023-05-07T10:02:30;3.40;;;0.70;;
50569;SDS011;36525;49.398;7.614;2023-05-07T10:05:00;3.22;;;0.90;;
50569;SDS011;36525;49.398;7.614;2023-05-07T10:07:29;4.43;;;0.82;;
50569;SDS011;36525;49.398;7.614;2023-05-07T10:09:57;3.53;;;0.77;;
50569;SDS011;36525;49.398;7.614;2023-05-07T10:12:25;2.30;;;0.63;;
50569;SDS011;36525;49.398;7.614;2023-05-07T10:14:53;5.20;;;0.80;;
50569;SDS011;36525;49.398;7.614;2023-05-07T10:17:21;3.75;;;0.80;;
50569;SDS011;36525;49.398;7.614;2023-05-07T10:19:50;3.47;;;0.80;;
50569;SDS011;36525;49.398;7.614;2023-05-07T10:22:19;2.83;;;0.70;;
50569;SDS011;36525;49.398;7.614;2023-05-07T10:24:47;2.10;;;0.75;;
50569;SDS011;36525;49.398;7.614;2023-05-07T10:27:19;2.08;;;0.68;;
50569;SDS011;36525;49.398;7.614;2023-05-07T10:32:59;3.78;;;0.75;;
50569;SDS011;36525;49.398;7.614;2023-05-07T10:35:36;1.55;;;0.55;;
50569;SDS011;36525;49.398;7.614;2023-05-07T10:38:07;2.17;;;0.75;;
50569;SDS011;36525;49.398;7.614;2023-05-07T10:40:35;2.33;;;0.68;;
50569;SDS011;36525;49.398;7.614;2023-05-07T10:43:04;2.08;;;0.80;;
50569;SDS011;36525;49.398;7.614;2023-05-07T10:45:35;2.58;;;0.68;;
50569;SDS011;36525;49.398;7.614;2023-05-07T10:50:44;2.25;;;0.68;;
50569;SDS011;36525;49.398;7.614;2023-05-07T10:55:48;1.90;;;0.73;;
50569;SDS011;36525;49.398;7.614;2023-05-07T10:58:48;1.20;;;0.65;;
50569;SDS011;36525;49.398;7.614;2023-05-07T11:01:16;1.88;;;0.60;;
50569;SDS011;36525;49.398;7.614;2023-05-07T11:04:22;1.45;;;0.63;;
50569;SDS011;36525;49.398;7.614;2023-05-07T11:15:05;1.25;;;0.60;;
50569;SDS011;36525;49.398;7.614;2023-05-07T11:17:53;1.67;;;0.77;;
50569;SDS011;36525;49.398;7.614;2023-05-07T11:26:03;3.00;;;0.60;;
50569;SDS011;36525;49.398;7.614;2023-05-07T11:28:31;1.65;;;0.68;;
50569;SDS011;36525;49.398;7.614;2023-05-07T11:31:05;2.55;;;0.90;;
50569;SDS011;36525;49.398;7.614;2023-05-07T11:33:32;1.63;;;0.80;;
50569;SDS011;36525;49.398;7.614;2023-05-07T11:36:01;4.75;;;1.00;;
50569;SDS011;36525;49.398;7.614;2023-05-07T11:38:33;1.58;;;0.70;;
50569;SDS011;36525;49.398;7.614;2023-05-07T11:43:32;2.28;;;0.80;;
50569;SDS011;36525;49.398;7.614;2023-05-07T11:46:07;2.05;;;0.70;;
50569;SDS011;36525;49.398;7.614;2023-05-07T11:48:38;3.25;;;0.80;;
50569;SDS011;36525;49.398;7.614;2023-05-07T11:51:06;2.33;;;0.70;;
50569;SDS011;36525;49.398;7.614;2023-05-07T11:53:37;2.28;;;0.80;;
50569;SDS011;36525;49.398;7.614;2023-05-07T11:56:10;3.20;;;0.90;;
50569;SDS011;36525;49.398;7.614;2023-05-07T11:58:43;3.88;;;1.00;;
50569;SDS011;36525;49.398;7.614;2023-05-07T12:01:12;3.80;;;0.93;;
50569;SDS011;36525;49.398;7.614;2023-05-07T12:03:42;3.00;;;0.82;;
50569;SDS011;36525;49.398;7.614;2023-05-07T12:06:14;2.30;;;0.80;;
50569;SDS011;36525;49.398;7.614;2023-05-07T12:08:43;2.92;;;0.90;;
50569;SDS011;36525;49.398;7.614;2023-05-07T12:11:14;2.90;;;0.80;;
50569;SDS011;36525;49.398;7.614;2023-05-07T12:13:49;2.30;;;0.80;;
50569;SDS011;36525;49.398;7.614;2023-05-07T12:16:16;1.80;;;0.80;;
50569;SDS011;36525;49.398;7.614;2023-05-07T12:18:44;4.25;;;1.20;;
50569;SDS011;36525;49.398;7.614;2023-05-07T12:21:13;1.27;;;0.75;;
50569;SDS011;36525;49.398;7.614;2023-05-07T12:23:41;2.45;;;0.73;;
50569;SDS011;36525;49.398;7.614;2023-05-07T12:26:08;2.83;;;0.90;;
50569;SDS011;36525;49.398;7.614;2023-05-07T12:28:37;2.33;;;0.90;;
50569;SDS011;36525;49.398;7.614;2023-05-07T12:31:05;2.63;;;1.02;;
50569;SDS011;36525;49.398;7.614;2023-05-07T12:33:34;1.52;;;1.05;;
50569;SDS011;36525;49.398;7.614;2023-05-07T12:36:03;5.07;;;1.10;;
50569;SDS011;36525;49.398;7.614;2023-05-07T12:38:36;2.55;;;1.30;;
50569;SDS011;36525;49.398;7.614;2023-05-07T12:41:05;1.77;;;1.08;;
50569;SDS011;36525;49.398;7.614;2023-05-07T12:43:34;2.88;;;1.02;;
50569;SDS011;36525;49.398;7.614;2023-05-07T12:46:04;6.05;;;1.60;;
50569;SDS011;36525;49.398;7.614;2023-05-07T12:48:35;2.70;;;1.30;;
50569;SDS011;36525;49.398;7.614;2023-05-07T12:51:09;3.83;;;1.42;;
50569;SDS011;36525;49.398;7.614;2023-05-07T12:53:42;4.28;;;1.50;;
50569;SDS011;36525;49.398;7.614;2023-05-07T12:56:09;3.67;;;1.40;;
50569;SDS011;36525;49.398;7.614;2023-05-07T12:58:36;3.78;;;1.52;;
50569;SDS011;36525;49.398;7.614;2023-05-07T13:01:07;2.75;;;1.52;;
50569;SDS011;36525;49.398;7.614;2023-05-07T13:03:37;3.88;;;2.03;;
50569;SDS011;36525;49.398;7.614;2023-05-07T13:06:09;12.10;;;4.15;;
50569;SDS011;36525;49.398;7.614;2023-05-07T13:08:38;12.65;;;3.25;;
50569;SDS011;36525;49.398;7.614;2023-05-07T13:11:10;26.25;;;4.93;;
50569;SDS011;36525;49.398;7.614;2023-05-07T13:13:38;11.82;;;4.00;;
50569;SDS011;36525;49.398;7.614;2023-05-07T13:16:07;15.48;;;4.60;;
50569;SDS011;36525;49.398;7.614;2023-05-07T13:18:38;25.83;;;6.22;;
50569;SDS011;36525;49.398;7.614;2023-05-07T13:21:06;10.93;;;4.55;;
50569;SDS011;36525;49.398;7.614;2023-05-07T13:23:34;10.63;;;4.75;;
50569;SDS011;36525;49.398;7.614;2023-05-07T13:26:01;13.07;;;4.50;;
50569;SDS011;36525;49.398;7.614;2023-05-07T13:28:40;7.47;;;3.90;;
50569;SDS011;36525;49.398;7.614;2023-05-07T13:31:07;6.60;;;2.55;;
50569;SDS011;36525;49.398;7.614;2023-05-07T13:33:34;8.75;;;2.58;;
50569;SDS011;36525;49.398;7.614;2023-05-07T13:36:02;7.65;;;2.80;;
50569;SDS011;36525;49.398;7.614;2023-05-07T13:38:31;8.75;;;3.17;;
50569;SDS011;36525;49.398;7.614;2023-05-07T13:40:59;6.28;;;2.75;;
50569;SDS011;36525;49.398;7.614;2023-05-07T13:43:26;9.23;;;2.83;;
50569;SDS011;36525;49.398;7.614;2023-05-07T13:45:53;13.30;;;3.67;;
50569;SDS011;36525;49.398;7.614;2023-05-07T13:48:20;10.13;;;4.18;;
50569;SDS011;36525;49.398;7.614;2023-05-07T13:50:47;7.85;;;2.80;;
50569;SDS011;36525;49.398;7.614;2023-05-07T13:53:14;10.95;;;3.53;;
50569;SDS011;36525;49.398;7.614;2023-05-07T13:55:44;8.38;;;3.40;;
50569;SDS011;36525;49.398;7.614;2023-05-07T13:58:11;8.45;;;2.83;;
50569;SDS011;36525;49.398;7.614;2023-05-07T14:00:39;8.07;;;3.17;;
50569;SDS011;36525;49.398;7.614;2023-05-07T14:03:06;14.52;;;3.17;;
50569;SDS011;36525;49.398;7.614;2023-05-07T14:05:33;18.55;;;3.97;;
50569;SDS011;36525;49.398;7.614;2023-05-07T14:08:02;9.55;;;3.38;;
50569;SDS011;36525;49.398;7.614;2023-05-07T14:10:30;13.27;;;3.58;;
50569;SDS011;36525;49.398;7.614;2023-05-07T14:12:58;12.00;;;3.78;;
50569;SDS011;36525;49.398;7.614;2023-05-07T14:15:25;13.90;;;3.80;;
50569;SDS011;36525;49.398;7.614;2023-05-07T14:17:52;16.17;;;3.42;;
50569;SDS011;36525;49.398;7.614;2023-05-07T14:20:22;15.55;;;3.45;;
50569;SDS011;36525;49.398;7.614;2023-05-07T14:22:49;16.13;;;3.22;;
50569;SDS011;36525;49.398;7.614;2023-05-07T14:25:16;12.63;;;2.92;;
50569;SDS011;36525;49.398;7.614;2023-05-07T14:27:44;9.77;;;2.70;;
50569;SDS011;36525;49.398;7.614;2023-05-07T14:30:11;8.82;;;2.22;;
50569;SDS011;36525;49.398;7.614;2023-05-07T14:32:39;10.48;;;3.25;;
50569;SDS011;36525;49.398;7.614;2023-05-07T14:35:06;10.68;;;2.72;;
50569;SDS011;36525;49.398;7.614;2023-05-07T14:37:35;5.65;;;2.33;;
50569;SDS011;36525;49.398;7.614;2023-05-07T14:40:02;11.80;;;3.45;;
50569;SDS011;36525;49.398;7.614;2023-05-07T14:42:29;5.72;;;2.50;;
50569;SDS011;36525;49.398;7.614;2023-05-07T14:44:56;7.43;;;2.97;;
50569;SDS011;36525;49.398;7.614;2023-05-07T14:47:23;9.90;;;3.20;;
50569;SDS011;36525;49.398;7.614;2023-05-07T14:49:50;10.02;;;4.32;;
50569;SDS011;36525;49.398;7.614;2023-05-07T14:52:17;11.10;;;3.35;;
50569;SDS011;36525;49.398;7.614;2023-05-07T14:54:44;4.70;;;1.92;;
50569;SDS011;36525;49.398;7.614;2023-05-07T14:57:13;3.90;;;1.90;;
50569;SDS011;36525;49.398;7.614;2023-05-07T14:59:42;6.32;;;2.05;;
50569;SDS011;36525;49.398;7.614;2023-05-07T15:02:10;3.88;;;1.60;;
50569;SDS011;36525;49.398;7.614;2023-05-07T15:04:38;6.97;;;1.60;;
50569;SDS011;36525;49.398;7.614;2023-05-07T15:07:12;3.45;;;1.75;;
50569;SDS011;36525;49.398;7.614;2023-05-07T15:09:42;5.95;;;1.90;;
50569;SDS011;36525;49.398;7.614;2023-05-07T15:12:09;5.40;;;1.85;;
50569;SDS011;36525;49.398;7.614;2023-05-07T15:14:38;6.38;;;1.70;;
50569;SDS011;36525;49.398;7.614;2023-05-07T15:17:05;5.07;;;1.60;;